sensor_id;sensor_type;location;lat;lon;timestamp;temperature;humidity
7720;DHT22;3902;49.474;8.616;2023-08-31T00:01:09;17.00;99.90
7720;DHT22;3902;49.474;8.616;2023-08-31T00:03:35;17.00;99.90
7720;DHT22;3902;49.474;8.616;2023-08-31T00:06:04;17.00;99.90
7720;DHT22;3902;49.474;8.616;2023-08-31T00:08:29;17.00;99.90
7720;DHT22;3902;49.474;8.616;2023-08-31T00:10:59;17.00;99.90
7720;DHT22;3902;49.474;8.616;2023-08-31T00:13:26;16.90;99.90
7720;DHT22;3902;49.474;8.616;2023-08-31T00:15:54;16.90;99.90
7720;DHT22;3902;49.474;8.616;2023-08-31T00:18:21;16.90;99.90
7720;DHT22;3902;49.474;8.616;2023-08-31T00:20:46;17.00;99.90
7720;DHT22;3902;49.474;8.616;2023-08-31T00:23:12;16.90;99.90
7720;DHT22;3902;49.474;8.616;2023-08-31T00:25:38;16.90;99.90
7720;DHT22;3902;49.474;8.616;2023-08-31T00:28:04;16.90;99.90
7720;DHT22;3902;49.474;8.616;2023-08-31T00:30:31;16.90;99.90
7720;DHT22;3902;49.474;8.616;2023-08-31T00:32:57;16.80;99.90
7720;DHT22;3902;49.474;8.616;2023-08-31T00:35:26;16.80;99.90
7720;DHT22;3902;49.474;8.616;2023-08-31T00:37:52;16.80;99.90
7720;DHT22;3902;49.474;8.616;2023-08-31T00:40:22;16.80;99.90
7720;DHT22;3902;49.474;8.616;2023-08-31T00:42:48;16.80;99.90
7720;DHT22;3902;49.474;8.616;2023-08-31T00:45:13;16.80;99.90
7720;DHT22;3902;49.474;8.616;2023-08-31T00:47:39;16.80;99.90
7720;DHT22;3902;49.474;8.616;2023-08-31T00:50:06;16.80;99.90
7720;DHT22;3902;49.474;8.616;2023-08-31T00:52:33;16.80;99.90
7720;DHT22;3902;49.474;8.616;2023-08-31T00:54:59;16.80;99.90
7720;DHT22;3902;49.474;8.616;2023-08-31T00:57:27;16.70;99.90
7720;DHT22;3902;49.474;8.616;2023-08-31T00:59:52;16.70;99.90
7720;DHT22;3902;49.474;8.616;2023-08-31T01:03:12;16.70;99.90
7720;DHT22;3902;49.474;8.616;2023-08-31T01:05:29;16.70;99.90
7720;DHT22;3902;49.474;8.616;2023-08-31T01:08:19;16.70;99.90
7720;DHT22;3902;49.474;8.616;2023-08-31T01:13:24;16.60;99.90
7720;DHT22;3902;49.474;8.616;2023-08-31T01:15:54;16.60;99.90
7720;DHT22;3902;49.474;8.616;2023-08-31T01:18:22;16.60;99.90
7720;DHT22;3902;49.474;8.616;2023-08-31T01:21:08;16.60;99.90
7720;DHT22;3902;49.474;8.616;2023-08-31T01:23:53;16.60;99.90
7720;DHT22;3902;49.474;8.616;2023-08-31T01:26:20;16.50;99.90
7720;DHT22;3902;49.474;8.616;2023-08-31T01:28:47;16.50;99.90
7720;DHT22;3902;49.474;8.616;2023-08-31T01:31:13;16.50;99.90
7720;DHT22;3902;49.474;8.616;2023-08-31T01:33:40;16.60;99.90
7720;DHT22;3902;49.474;8.616;2023-08-31T01:36:28;16.50;99.90
7720;DHT22;3902;49.474;8.616;2023-08-31T01:39:11;16.50;99.90
7720;DHT22;3902;49.474;8.616;2023-08-31T01:41:40;16.50;99.90
7720;DHT22;3902;49.474;8.616;2023-08-31T01:44:08;16.50;99.90
7720;DHT22;3902;49.474;8.616;2023-08-31T01:46:39;16.50;99.90
7720;DHT22;3902;49.474;8.616;2023-08-31T01:49:05;16.50;99.90
7720;DHT22;3902;49.474;8.616;2023-08-31T01:51:31;16.50;99.90
7720;DHT22;3902;49.474;8.616;2023-08-31T01:53:56;16.50;99.90
7720;DHT22;3902;49.474;8.616;2023-08-31T01:56:23;16.50;99.90
7720;DHT22;3902;49.474;8.616;2023-08-31T01:58:49;16.50;99.90
7720;DHT22;3902;49.474;8.616;2023-08-31T02:01:14;16.50;99.90
7720;DHT22;3902;49.474;8.616;2023-08-31T02:03:40;16.40;99.90
7720;DHT22;3902;49.474;8.616;2023-08-31T02:06:05;16.40;99.90
7720;DHT22;3902;49.474;8.616;2023-08-31T02:08:32;16.30;99.90
7720;DHT22;3902;49.474;8.616;2023-08-31T02:10:57;16.30;99.90
7720;DHT22;3902;49.474;8.616;2023-08-31T02:13:23;16.30;99.90
7720;DHT22;3902;49.474;8.616;2023-08-31T02:15:52;16.30;99.90
7720;DHT22;3902;49.474;8.616;2023-08-31T02:18:17;16.30;99.90
7720;DHT22;3902;49.474;8.616;2023-08-31T02:20:43;16.20;99.90
7720;DHT22;3902;49.474;8.616;2023-08-31T02:23:08;16.20;99.90
7720;DHT22;3902;49.474;8.616;2023-08-31T02:25:35;16.20;99.90
7720;DHT22;3902;49.474;8.616;2023-08-31T02:28:00;16.10;99.90
7720;DHT22;3902;49.474;8.616;2023-08-31T02:30:26;16.10;99.90
7720;DHT22;3902;49.474;8.616;2023-08-31T02:32:51;16.10;99.90
7720;DHT22;3902;49.474;8.616;2023-08-31T02:35:17;16.00;99.90
7720;DHT22;3902;49.474;8.616;2023-08-31T02:37:43;16.10;99.90
7720;DHT22;3902;49.474;8.616;2023-08-31T02:40:09;16.00;99.90
7720;DHT22;3902;49.474;8.616;2023-08-31T02:42:34;16.00;99.90
7720;DHT22;3902;49.474;8.616;2023-08-31T02:45:00;16.00;99.90
7720;DHT22;3902;49.474;8.616;2023-08-31T02:47:26;16.00;99.90
7720;DHT22;3902;49.474;8.616;2023-08-31T02:49:51;16.00;99.90
7720;DHT22;3902;49.474;8.616;2023-08-31T02:52:17;16.00;99.90
7720;DHT22;3902;49.474;8.616;2023-08-31T02:54:42;16.00;99.90
7720;DHT22;3902;49.474;8.616;2023-08-31T02:57:08;16.00;99.90
7720;DHT22;3902;49.474;8.616;2023-08-31T02:59:34;16.00;99.90
7720;DHT22;3902;49.474;8.616;2023-08-31T03:02:02;16.00;99.90
7720;DHT22;3902;49.474;8.616;2023-08-31T03:04:28;16.00;99.90
7720;DHT22;3902;49.474;8.616;2023-08-31T03:06:54;15.90;99.90
7720;DHT22;3902;49.474;8.616;2023-08-31T03:09:19;15.90;99.90
7720;DHT22;3902;49.474;8.616;2023-08-31T03:11:48;15.90;99.90
7720;DHT22;3902;49.474;8.616;2023-08-31T03:14:13;15.90;99.90
7720;DHT22;3902;49.474;8.616;2023-08-31T03:16:39;15.90;99.90
7720;DHT22;3902;49.474;8.616;2023-08-31T03:19:05;15.90;99.90
7720;DHT22;3902;49.474;8.616;2023-08-31T03:21:31;15.90;99.90
7720;DHT22;3902;49.474;8.616;2023-08-31T03:23:56;15.90;99.90
7720;DHT22;3902;49.474;8.616;2023-08-31T03:26:22;15.90;99.90
7720;DHT22;3902;49.474;8.616;2023-08-31T03:28:47;15.80;99.90
7720;DHT22;3902;49.474;8.616;2023-08-31T03:31:13;15.80;99.90
7720;DHT22;3902;49.474;8.616;2023-08-31T03:33:38;15.70;99.90
7720;DHT22;3902;49.474;8.616;2023-08-31T03:36:04;15.80;99.90
7720;DHT22;3902;49.474;8.616;2023-08-31T03:38:32;15.70;99.90
7720;DHT22;3902;49.474;8.616;2023-08-31T03:41:02;15.70;99.90
7720;DHT22;3902;49.474;8.616;2023-08-31T03:43:28;15.80;99.90
7720;DHT22;3902;49.474;8.616;2023-08-31T03:45:54;15.70;99.90
7720;DHT22;3902;49.474;8.616;2023-08-31T03:48:21;15.80;99.90
7720;DHT22;3902;49.474;8.616;2023-08-31T03:50:54;15.70;99.90
7720;DHT22;3902;49.474;8.616;2023-08-31T03:53:20;15.70;99.90
7720;DHT22;3902;49.474;8.616;2023-08-31T03:55:46;15.70;99.90
7720;DHT22;3902;49.474;8.616;2023-08-31T03:58:11;15.80;99.90
7720;DHT22;3902;49.474;8.616;2023-08-31T04:00:37;15.70;99.90
7720;DHT22;3902;49.474;8.616;2023-08-31T04:03:04;15.70;99.90
7720;DHT22;3902;49.474;8.616;2023-08-31T04:05:34;15.70;99.90
7720;DHT22;3902;49.474;8.616;2023-08-31T04:08:00;15.80;99.90
7720;DHT22;3902;49.474;8.616;2023-08-31T04:10:26;15.80;99.90
7720;DHT22;3902;49.474;8.616;2023-08-31T04:12:52;15.70;99.90
7720;DHT22;3902;49.474;8.616;2023-08-31T04:15:17;15.70;99.90
7720;DHT22;3902;49.474;8.616;2023-08-31T04:17:43;15.70;99.90
7720;DHT22;3902;49.474;8.616;2023-08-31T04:20:09;15.80;99.90
7720;DHT22;3902;49.474;8.616;2023-08-31T04:22:35;15.70;99.90
7720;DHT22;3902;49.474;8.616;2023-08-31T04:25:00;15.80;99.90
7720;DHT22;3902;49.474;8.616;2023-08-31T04:27:26;15.70;99.90
7720;DHT22;3902;49.474;8.616;2023-08-31T04:29:53;15.80;99.90
7720;DHT22;3902;49.474;8.616;2023-08-31T04:32:18;15.80;99.90
7720;DHT22;3902;49.474;8.616;2023-08-31T04:34:43;15.80;99.90
7720;DHT22;3902;49.474;8.616;2023-08-31T04:37:09;15.80;99.90
7720;DHT22;3902;49.474;8.616;2023-08-31T04:39:35;15.80;99.90
7720;DHT22;3902;49.474;8.616;2023-08-31T04:42:00;15.90;99.90
7720;DHT22;3902;49.474;8.616;2023-08-31T04:44:26;15.80;99.90
7720;DHT22;3902;49.474;8.616;2023-08-31T04:46:51;15.90;99.90
7720;DHT22;3902;49.474;8.616;2023-08-31T04:49:17;15.90;99.90
7720;DHT22;3902;49.474;8.616;2023-08-31T04:51:44;15.90;99.90
7720;DHT22;3902;49.474;8.616;2023-08-31T04:54:09;15.80;99.90
7720;DHT22;3902;49.474;8.616;2023-08-31T04:56:36;15.90;99.90
7720;DHT22;3902;49.474;8.616;2023-08-31T04:59:01;15.90;99.90
7720;DHT22;3902;49.474;8.616;2023-08-31T05:01:28;15.90;99.90
7720;DHT22;3902;49.474;8.616;2023-08-31T05:03:53;15.90;99.90
7720;DHT22;3902;49.474;8.616;2023-08-31T05:06:19;15.90;99.90
7720;DHT22;3902;49.474;8.616;2023-08-31T05:08:47;15.90;99.90
7720;DHT22;3902;49.474;8.616;2023-08-31T05:11:13;15.90;99.90
7720;DHT22;3902;49.474;8.616;2023-08-31T05:13:38;15.90;99.90
7720;DHT22;3902;49.474;8.616;2023-08-31T05:16:10;15.90;99.90
7720;DHT22;3902;49.474;8.616;2023-08-31T05:18:36;15.90;99.90
7720;DHT22;3902;49.474;8.616;2023-08-31T05:21:02;16.00;99.90
7720;DHT22;3902;49.474;8.616;2023-08-31T05:23:28;16.00;99.90
7720;DHT22;3902;49.474;8.616;2023-08-31T05:25:54;16.00;99.90
7720;DHT22;3902;49.474;8.616;2023-08-31T05:28:22;16.00;99.90
7720;DHT22;3902;49.474;8.616;2023-08-31T05:30:52;16.00;99.90
7720;DHT22;3902;49.474;8.616;2023-08-31T05:33:18;16.00;99.90
7720;DHT22;3902;49.474;8.616;2023-08-31T05:35:44;16.00;99.90
7720;DHT22;3902;49.474;8.616;2023-08-31T05:38:10;16.00;99.90
7720;DHT22;3902;49.474;8.616;2023-08-31T05:40:35;16.00;99.90
7720;DHT22;3902;49.474;8.616;2023-08-31T05:43:01;16.10;99.90
7720;DHT22;3902;49.474;8.616;2023-08-31T05:45:32;16.00;99.90
7720;DHT22;3902;49.474;8.616;2023-08-31T05:47:57;16.00;99.90
7720;DHT22;3902;49.474;8.616;2023-08-31T05:50:23;16.00;99.90
7720;DHT22;3902;49.474;8.616;2023-08-31T05:52:48;16.00;99.90
7720;DHT22;3902;49.474;8.616;2023-08-31T05:55:14;16.10;99.90
7720;DHT22;3902;49.474;8.616;2023-08-31T05:57:39;16.00;99.90
7720;DHT22;3902;49.474;8.616;2023-08-31T06:00:06;16.00;99.90
7720;DHT22;3902;49.474;8.616;2023-08-31T06:02:32;16.00;99.90
7720;DHT22;3902;49.474;8.616;2023-08-31T06:04:58;16.00;99.90
7720;DHT22;3902;49.474;8.616;2023-08-31T06:07:23;16.10;99.90
7720;DHT22;3902;49.474;8.616;2023-08-31T06:09:49;16.00;99.90
7720;DHT22;3902;49.474;8.616;2023-08-31T06:12:14;16.00;99.90
7720;DHT22;3902;49.474;8.616;2023-08-31T06:14:40;16.00;99.90
7720;DHT22;3902;49.474;8.616;2023-08-31T06:17:05;16.00;99.90
7720;DHT22;3902;49.474;8.616;2023-08-31T06:19:31;16.00;99.90
7720;DHT22;3902;49.474;8.616;2023-08-31T06:21:57;16.00;99.90
7720;DHT22;3902;49.474;8.616;2023-08-31T06:24:22;16.10;99.90
7720;DHT22;3902;49.474;8.616;2023-08-31T06:26:48;16.10;99.90
7720;DHT22;3902;49.474;8.616;2023-08-31T06:29:13;16.10;99.90
7720;DHT22;3902;49.474;8.616;2023-08-31T06:31:39;16.10;99.90
7720;DHT22;3902;49.474;8.616;2023-08-31T06:34:05;16.10;99.90
7720;DHT22;3902;49.474;8.616;2023-08-31T06:36:30;16.10;99.90
7720;DHT22;3902;49.474;8.616;2023-08-31T06:38:56;16.00;99.90
7720;DHT22;3902;49.474;8.616;2023-08-31T06:41:21;16.10;99.90
7720;DHT22;3902;49.474;8.616;2023-08-31T06:43:47;16.10;99.90
7720;DHT22;3902;49.474;8.616;2023-08-31T06:46:12;16.10;99.90
7720;DHT22;3902;49.474;8.616;2023-08-31T06:48:38;16.10;99.90
7720;DHT22;3902;49.474;8.616;2023-08-31T06:51:03;16.10;99.90
7720;DHT22;3902;49.474;8.616;2023-08-31T06:53:30;16.10;99.90
7720;DHT22;3902;49.474;8.616;2023-08-31T06:55:57;16.00;99.90
7720;DHT22;3902;49.474;8.616;2023-08-31T06:58:22;16.00;99.90
7720;DHT22;3902;49.474;8.616;2023-08-31T07:00:48;16.10;99.90
7720;DHT22;3902;49.474;8.616;2023-08-31T07:03:13;16.20;99.90
7720;DHT22;3902;49.474;8.616;2023-08-31T07:05:42;16.20;99.90
7720;DHT22;3902;49.474;8.616;2023-08-31T07:08:08;16.30;99.90
7720;DHT22;3902;49.474;8.616;2023-08-31T07:10:34;16.30;99.90
7720;DHT22;3902;49.474;8.616;2023-08-31T07:13:04;16.20;99.90
7720;DHT22;3902;49.474;8.616;2023-08-31T07:15:29;16.20;99.90
7720;DHT22;3902;49.474;8.616;2023-08-31T07:17:55;16.20;99.90
7720;DHT22;3902;49.474;8.616;2023-08-31T07:20:20;16.30;99.90
7720;DHT22;3902;49.474;8.616;2023-08-31T07:22:46;16.30;99.90
7720;DHT22;3902;49.474;8.616;2023-08-31T07:25:11;16.40;99.90
7720;DHT22;3902;49.474;8.616;2023-08-31T07:27:37;16.40;99.90
7720;DHT22;3902;49.474;8.616;2023-08-31T07:30:04;16.40;99.90
7720;DHT22;3902;49.474;8.616;2023-08-31T07:32:30;16.40;99.90
7720;DHT22;3902;49.474;8.616;2023-08-31T07:34:56;16.50;99.90
7720;DHT22;3902;49.474;8.616;2023-08-31T07:37:22;16.40;99.90
7720;DHT22;3902;49.474;8.616;2023-08-31T07:39:47;16.40;99.90
7720;DHT22;3902;49.474;8.616;2023-08-31T07:42:13;16.40;99.90
7720;DHT22;3902;49.474;8.616;2023-08-31T07:44:38;16.50;99.90
7720;DHT22;3902;49.474;8.616;2023-08-31T07:47:04;16.60;99.90
7720;DHT22;3902;49.474;8.616;2023-08-31T07:49:30;16.60;99.90
7720;DHT22;3902;49.474;8.616;2023-08-31T07:51:56;16.60;99.90
7720;DHT22;3902;49.474;8.616;2023-08-31T07:54:22;16.80;99.90
7720;DHT22;3902;49.474;8.616;2023-08-31T07:56:48;16.80;99.90
7720;DHT22;3902;49.474;8.616;2023-08-31T07:59:13;16.90;99.90
7720;DHT22;3902;49.474;8.616;2023-08-31T08:01:39;16.90;99.90
7720;DHT22;3902;49.474;8.616;2023-08-31T08:04:06;16.90;99.90
7720;DHT22;3902;49.474;8.616;2023-08-31T08:06:31;16.90;99.90
7720;DHT22;3902;49.474;8.616;2023-08-31T08:08:57;16.90;99.90
7720;DHT22;3902;49.474;8.616;2023-08-31T08:11:22;17.00;99.90
7720;DHT22;3902;49.474;8.616;2023-08-31T08:13:48;16.90;99.90
7720;DHT22;3902;49.474;8.616;2023-08-31T08:16:14;17.00;99.90
7720;DHT22;3902;49.474;8.616;2023-08-31T08:18:40;17.10;99.90
7720;DHT22;3902;49.474;8.616;2023-08-31T08:21:06;17.10;99.90
7720;DHT22;3902;49.474;8.616;2023-08-31T08:23:31;17.10;99.90
7720;DHT22;3902;49.474;8.616;2023-08-31T08:25:57;17.10;99.90
7720;DHT22;3902;49.474;8.616;2023-08-31T08:28:25;17.10;99.90
7720;DHT22;3902;49.474;8.616;2023-08-31T08:30:50;17.10;99.90
7720;DHT22;3902;49.474;8.616;2023-08-31T08:33:16;17.00;99.90
7720;DHT22;3902;49.474;8.616;2023-08-31T08:35:41;17.00;99.90
7720;DHT22;3902;49.474;8.616;2023-08-31T08:38:07;17.10;99.90
7720;DHT22;3902;49.474;8.616;2023-08-31T08:40:34;17.10;99.90
7720;DHT22;3902;49.474;8.616;2023-08-31T08:43:06;17.10;99.90
7720;DHT22;3902;49.474;8.616;2023-08-31T08:45:37;17.10;99.90
7720;DHT22;3902;49.474;8.616;2023-08-31T08:48:05;17.20;99.90
7720;DHT22;3902;49.474;8.616;2023-08-31T08:50:31;17.10;99.90
7720;DHT22;3902;49.474;8.616;2023-08-31T08:52:59;17.20;99.90
7720;DHT22;3902;49.474;8.616;2023-08-31T08:55:25;17.20;99.90
7720;DHT22;3902;49.474;8.616;2023-08-31T08:57:50;17.30;99.90
7720;DHT22;3902;49.474;8.616;2023-08-31T09:00:16;17.30;99.90
7720;DHT22;3902;49.474;8.616;2023-08-31T09:02:42;17.30;99.90
7720;DHT22;3902;49.474;8.616;2023-08-31T09:05:08;17.30;99.90
7720;DHT22;3902;49.474;8.616;2023-08-31T09:07:37;17.30;99.90
7720;DHT22;3902;49.474;8.616;2023-08-31T09:10:04;17.40;99.90
7720;DHT22;3902;49.474;8.616;2023-08-31T09:12:30;17.40;99.90
7720;DHT22;3902;49.474;8.616;2023-08-31T09:15:03;17.40;99.90
7720;DHT22;3902;49.474;8.616;2023-08-31T09:17:42;17.40;99.90
7720;DHT22;3902;49.474;8.616;2023-08-31T09:20:09;17.50;99.90
7720;DHT22;3902;49.474;8.616;2023-08-31T09:22:36;17.50;99.90
7720;DHT22;3902;49.474;8.616;2023-08-31T09:25:02;17.60;99.90
7720;DHT22;3902;49.474;8.616;2023-08-31T09:27:29;17.60;99.90
7720;DHT22;3902;49.474;8.616;2023-08-31T09:29:56;17.50;99.90
7720;DHT22;3902;49.474;8.616;2023-08-31T09:32:22;17.60;99.90
7720;DHT22;3902;49.474;8.616;2023-08-31T09:34:48;17.70;99.90
7720;DHT22;3902;49.474;8.616;2023-08-31T09:37:15;17.80;99.90
7720;DHT22;3902;49.474;8.616;2023-08-31T09:39:41;17.80;99.90
7720;DHT22;3902;49.474;8.616;2023-08-31T09:42:07;17.70;99.90
7720;DHT22;3902;49.474;8.616;2023-08-31T09:44:33;17.80;99.90
7720;DHT22;3902;49.474;8.616;2023-08-31T09:46:59;18.00;99.90
7720;DHT22;3902;49.474;8.616;2023-08-31T09:49:25;18.10;99.90
7720;DHT22;3902;49.474;8.616;2023-08-31T09:51:51;18.10;99.90
7720;DHT22;3902;49.474;8.616;2023-08-31T09:54:18;18.20;99.90
7720;DHT22;3902;49.474;8.616;2023-08-31T09:56:46;18.30;99.90
7720;DHT22;3902;49.474;8.616;2023-08-31T09:59:13;18.40;99.90
7720;DHT22;3902;49.474;8.616;2023-08-31T10:01:42;18.40;99.90
7720;DHT22;3902;49.474;8.616;2023-08-31T10:04:08;18.50;99.90
7720;DHT22;3902;49.474;8.616;2023-08-31T10:06:39;18.50;99.90
7720;DHT22;3902;49.474;8.616;2023-08-31T10:09:05;18.50;99.90
7720;DHT22;3902;49.474;8.616;2023-08-31T10:11:31;18.50;99.90
7720;DHT22;3902;49.474;8.616;2023-08-31T10:13:58;18.50;99.90
7720;DHT22;3902;49.474;8.616;2023-08-31T10:16:25;18.60;99.90
7720;DHT22;3902;49.474;8.616;2023-08-31T10:18:52;18.60;99.90
7720;DHT22;3902;49.474;8.616;2023-08-31T10:21:19;18.50;99.90
7720;DHT22;3902;49.474;8.616;2023-08-31T10:23:46;18.60;99.90
7720;DHT22;3902;49.474;8.616;2023-08-31T10:26:12;18.70;99.90
7720;DHT22;3902;49.474;8.616;2023-08-31T10:28:42;18.70;99.90
7720;DHT22;3902;49.474;8.616;2023-08-31T10:31:16;18.70;99.90
7720;DHT22;3902;49.474;8.616;2023-08-31T10:33:43;18.80;99.90
7720;DHT22;3902;49.474;8.616;2023-08-31T10:36:18;18.90;99.90
7720;DHT22;3902;49.474;8.616;2023-08-31T10:38:46;19.00;99.90
7720;DHT22;3902;49.474;8.616;2023-08-31T10:51:45;19.10;99.90
7720;DHT22;3902;49.474;8.616;2023-08-31T10:54:25;19.10;99.90
7720;DHT22;3902;49.474;8.616;2023-08-31T10:59:26;20.00;99.90
7720;DHT22;3902;49.474;8.616;2023-08-31T11:01:53;20.60;99.90
7720;DHT22;3902;49.474;8.616;2023-08-31T11:04:20;21.50;99.90
7720;DHT22;3902;49.474;8.616;2023-08-31T11:06:46;22.30;99.90
7720;DHT22;3902;49.474;8.616;2023-08-31T11:09:21;22.90;99.90
7720;DHT22;3902;49.474;8.616;2023-08-31T11:11:47;23.60;99.90
7720;DHT22;3902;49.474;8.616;2023-08-31T11:14:14;23.60;99.90
7720;DHT22;3902;49.474;8.616;2023-08-31T11:16:41;24.40;99.90
7720;DHT22;3902;49.474;8.616;2023-08-31T11:19:06;24.70;99.90
7720;DHT22;3902;49.474;8.616;2023-08-31T11:21:32;25.00;99.90
7720;DHT22;3902;49.474;8.616;2023-08-31T11:23:58;25.20;99.80
7720;DHT22;3902;49.474;8.616;2023-08-31T11:26:25;24.90;99.00
7720;DHT22;3902;49.474;8.616;2023-08-31T11:28:51;24.80;99.70
7720;DHT22;3902;49.474;8.616;2023-08-31T11:31:26;24.40;99.60
7720;DHT22;3902;49.474;8.616;2023-08-31T11:33:54;24.00;99.80
7720;DHT22;3902;49.474;8.616;2023-08-31T11:36:21;23.80;99.90
7720;DHT22;3902;49.474;8.616;2023-08-31T11:38:50;23.40;99.90
7720;DHT22;3902;49.474;8.616;2023-08-31T11:41:16;22.70;99.90
7720;DHT22;3902;49.474;8.616;2023-08-31T11:43:42;22.40;99.90
7720;DHT22;3902;49.474;8.616;2023-08-31T11:46:08;22.40;99.90
7720;DHT22;3902;49.474;8.616;2023-08-31T11:48:34;22.50;99.90
7720;DHT22;3902;49.474;8.616;2023-08-31T11:51:00;22.40;99.90
7720;DHT22;3902;49.474;8.616;2023-08-31T11:53:26;22.00;99.90
7720;DHT22;3902;49.474;8.616;2023-08-31T11:55:53;21.80;99.90
7720;DHT22;3902;49.474;8.616;2023-08-31T11:58:19;21.60;99.90
7720;DHT22;3902;49.474;8.616;2023-08-31T12:00:46;21.50;99.90
7720;DHT22;3902;49.474;8.616;2023-08-31T12:03:19;21.20;99.90
7720;DHT22;3902;49.474;8.616;2023-08-31T12:05:51;20.90;99.90
7720;DHT22;3902;49.474;8.616;2023-08-31T12:08:26;20.80;99.90
7720;DHT22;3902;49.474;8.616;2023-08-31T12:10:51;20.70;99.90
7720;DHT22;3902;49.474;8.616;2023-08-31T12:13:17;20.70;99.90
7720;DHT22;3902;49.474;8.616;2023-08-31T12:15:43;20.70;99.90
7720;DHT22;3902;49.474;8.616;2023-08-31T12:18:09;20.70;99.90
7720;DHT22;3902;49.474;8.616;2023-08-31T12:20:34;20.70;99.90
7720;DHT22;3902;49.474;8.616;2023-08-31T12:23:07;20.90;99.90
7720;DHT22;3902;49.474;8.616;2023-08-31T12:25:35;21.30;99.90
7720;DHT22;3902;49.474;8.616;2023-08-31T12:28:00;21.90;99.90
7720;DHT22;3902;49.474;8.616;2023-08-31T12:30:26;22.40;99.90
7720;DHT22;3902;49.474;8.616;2023-08-31T12:32:51;22.90;99.90
7720;DHT22;3902;49.474;8.616;2023-08-31T12:35:17;23.00;99.90
7720;DHT22;3902;49.474;8.616;2023-08-31T12:37:43;23.20;99.90
7720;DHT22;3902;49.474;8.616;2023-08-31T12:40:09;23.20;99.90
7720;DHT22;3902;49.474;8.616;2023-08-31T12:42:35;23.30;99.90
7720;DHT22;3902;49.474;8.616;2023-08-31T12:45:01;24.00;99.90
7720;DHT22;3902;49.474;8.616;2023-08-31T12:47:26;24.50;99.90
7720;DHT22;3902;49.474;8.616;2023-08-31T12:49:52;24.90;99.90
7720;DHT22;3902;49.474;8.616;2023-08-31T12:52:17;25.00;99.80
7720;DHT22;3902;49.474;8.616;2023-08-31T12:54:43;25.00;99.00
7720;DHT22;3902;49.474;8.616;2023-08-31T12:57:08;24.90;99.40
7720;DHT22;3902;49.474;8.616;2023-08-31T12:59:34;25.20;98.90
7720;DHT22;3902;49.474;8.616;2023-08-31T13:01:59;25.00;98.80
7720;DHT22;3902;49.474;8.616;2023-08-31T13:04:25;24.90;99.20
7720;DHT22;3902;49.474;8.616;2023-08-31T13:06:50;25.00;99.40
7720;DHT22;3902;49.474;8.616;2023-08-31T13:09:16;24.80;99.40
7720;DHT22;3902;49.474;8.616;2023-08-31T13:11:41;24.60;98.80
7720;DHT22;3902;49.474;8.616;2023-08-31T13:14:07;24.30;99.40
7720;DHT22;3902;49.474;8.616;2023-08-31T13:16:33;23.70;99.20
7720;DHT22;3902;49.474;8.616;2023-08-31T13:19:02;23.50;99.90
7720;DHT22;3902;49.474;8.616;2023-08-31T13:21:27;23.20;99.90
7720;DHT22;3902;49.474;8.616;2023-08-31T13:23:53;23.00;99.90
7720;DHT22;3902;49.474;8.616;2023-08-31T13:26:19;22.70;99.90
7720;DHT22;3902;49.474;8.616;2023-08-31T13:28:44;22.40;99.90
7720;DHT22;3902;49.474;8.616;2023-08-31T13:31:10;22.40;99.90
7720;DHT22;3902;49.474;8.616;2023-08-31T13:33:37;22.40;99.90
7720;DHT22;3902;49.474;8.616;2023-08-31T13:36:02;22.20;99.90
7720;DHT22;3902;49.474;8.616;2023-08-31T13:38:29;22.10;99.90
7720;DHT22;3902;49.474;8.616;2023-08-31T13:40:55;21.80;99.90
7720;DHT22;3902;49.474;8.616;2023-08-31T13:43:24;21.80;99.90
7720;DHT22;3902;49.474;8.616;2023-08-31T13:45:50;21.60;99.90
7720;DHT22;3902;49.474;8.616;2023-08-31T13:48:16;21.50;99.90
7720;DHT22;3902;49.474;8.616;2023-08-31T13:50:41;21.70;99.90
7720;DHT22;3902;49.474;8.616;2023-08-31T13:53:07;21.90;99.90
7720;DHT22;3902;49.474;8.616;2023-08-31T13:55:32;22.00;99.90
7720;DHT22;3902;49.474;8.616;2023-08-31T13:58:07;22.10;99.90
7720;DHT22;3902;49.474;8.616;2023-08-31T14:00:33;22.10;99.90
7720;DHT22;3902;49.474;8.616;2023-08-31T14:03:00;21.70;99.90
7720;DHT22;3902;49.474;8.616;2023-08-31T14:05:29;21.80;99.90
7720;DHT22;3902;49.474;8.616;2023-08-31T14:07:55;22.20;99.90
7720;DHT22;3902;49.474;8.616;2023-08-31T14:10:21;22.90;99.90
7720;DHT22;3902;49.474;8.616;2023-08-31T14:12:46;23.40;99.90
7720;DHT22;3902;49.474;8.616;2023-08-31T14:15:12;24.30;99.90
7720;DHT22;3902;49.474;8.616;2023-08-31T14:17:37;24.90;99.90
7720;DHT22;3902;49.474;8.616;2023-08-31T14:20:03;25.60;99.90
7720;DHT22;3902;49.474;8.616;2023-08-31T14:22:32;25.60;99.90
7720;DHT22;3902;49.474;8.616;2023-08-31T14:24:59;25.80;99.90
7720;DHT22;3902;49.474;8.616;2023-08-31T14:27:25;26.00;99.90
7720;DHT22;3902;49.474;8.616;2023-08-31T14:29:52;25.70;99.50
7720;DHT22;3902;49.474;8.616;2023-08-31T14:32:18;25.60;98.50
7720;DHT22;3902;49.474;8.616;2023-08-31T14:34:43;24.70;99.90
7720;DHT22;3902;49.474;8.616;2023-08-31T14:37:09;24.00;99.90
7720;DHT22;3902;49.474;8.616;2023-08-31T14:39:34;23.60;99.90
7720;DHT22;3902;49.474;8.616;2023-08-31T14:42:00;23.20;99.90
7720;DHT22;3902;49.474;8.616;2023-08-31T14:44:26;22.70;99.90
7720;DHT22;3902;49.474;8.616;2023-08-31T14:46:52;22.30;99.90
7720;DHT22;3902;49.474;8.616;2023-08-31T14:49:17;22.10;99.90
7720;DHT22;3902;49.474;8.616;2023-08-31T14:51:43;22.30;99.90
7720;DHT22;3902;49.474;8.616;2023-08-31T14:54:09;22.20;99.90
7720;DHT22;3902;49.474;8.616;2023-08-31T14:56:35;22.30;99.90
7720;DHT22;3902;49.474;8.616;2023-08-31T14:59:00;22.40;99.90
7720;DHT22;3902;49.474;8.616;2023-08-31T15:01:26;22.30;99.90
7720;DHT22;3902;49.474;8.616;2023-08-31T15:03:51;22.50;99.90
7720;DHT22;3902;49.474;8.616;2023-08-31T15:06:17;22.50;99.90
7720;DHT22;3902;49.474;8.616;2023-08-31T15:08:42;22.40;99.90
7720;DHT22;3902;49.474;8.616;2023-08-31T15:11:08;21.90;99.90
7720;DHT22;3902;49.474;8.616;2023-08-31T15:13:34;21.50;99.90
7720;DHT22;3902;49.474;8.616;2023-08-31T15:16:00;21.50;99.90
7720;DHT22;3902;49.474;8.616;2023-08-31T15:18:27;21.10;99.90
7720;DHT22;3902;49.474;8.616;2023-08-31T15:20:53;21.00;99.90
7720;DHT22;3902;49.474;8.616;2023-08-31T15:23:18;20.70;99.90
7720;DHT22;3902;49.474;8.616;2023-08-31T15:25:44;20.70;99.90
7720;DHT22;3902;49.474;8.616;2023-08-31T15:28:09;20.70;99.90
7720;DHT22;3902;49.474;8.616;2023-08-31T15:30:35;20.80;99.90
7720;DHT22;3902;49.474;8.616;2023-08-31T15:33:04;20.70;99.90
7720;DHT22;3902;49.474;8.616;2023-08-31T15:35:30;20.80;99.90
7720;DHT22;3902;49.474;8.616;2023-08-31T15:37:57;20.80;99.90
7720;DHT22;3902;49.474;8.616;2023-08-31T15:40:23;20.90;99.90
7720;DHT22;3902;49.474;8.616;2023-08-31T15:42:48;21.00;99.90
7720;DHT22;3902;49.474;8.616;2023-08-31T15:45:14;21.00;99.90
7720;DHT22;3902;49.474;8.616;2023-08-31T15:47:39;20.90;99.90
7720;DHT22;3902;49.474;8.616;2023-08-31T15:50:05;20.70;99.90
7720;DHT22;3902;49.474;8.616;2023-08-31T15:52:31;20.70;99.90
7720;DHT22;3902;49.474;8.616;2023-08-31T15:54:57;20.60;99.90
7720;DHT22;3902;49.474;8.616;2023-08-31T15:57:24;20.50;99.90
7720;DHT22;3902;49.474;8.616;2023-08-31T15:59:50;20.60;99.90
7720;DHT22;3902;49.474;8.616;2023-08-31T16:02:15;20.60;99.90
7720;DHT22;3902;49.474;8.616;2023-08-31T16:04:44;20.60;99.90
7720;DHT22;3902;49.474;8.616;2023-08-31T16:07:12;20.50;99.90
7720;DHT22;3902;49.474;8.616;2023-08-31T16:09:39;20.40;99.90
7720;DHT22;3902;49.474;8.616;2023-08-31T16:12:04;20.20;99.90
7720;DHT22;3902;49.474;8.616;2023-08-31T16:14:30;20.20;99.90